Time;durP1;ratioP1;P1;durP2;ratioP2;P2;SDS_P1;SDS_P2;PMS_P1;PMS_P2;Temp;Humidity;BMP_temperature;BMP_pressure;BME280_temperature;BME280_humidity;BME280_pressure;Samples;Min_cycle;Max_cycle;Signal;HPM_P1;HPM_P2
2024/04/11 00:04:40;;;;;;;1.63;1.30;;;20.20;63.00;;;;;;11059910;26;19997;-59
2024/04/11 00:09:44;;;;;;;2.88;1.50;;;20.20;63.00;;;;;;11059233;26;19997;-60
2024/04/11 00:14:49;;;;;;;2.63;1.30;;;20.20;63.10;;;;;;11058944;26;20466;-59
2024/04/11 00:19:56;;;;;;;2.45;1.20;;;20.20;63.10;;;;;;11058735;26;20012;-60
2024/04/11 00:25:01;;;;;;;1.30;1.00;;;20.10;63.10;;;;;;11058574;26;19997;-58
2024/04/11 00:30:04;;;;;;;2.25;1.30;;;20.10;63.20;;;;;;11058535;26;20001;-59
2024/04/11 00:35:10;;;;;;;1.73;1.38;;;20.10;63.20;;;;;;11058025;26;20075;-58
2024/04/11 00:40:14;;;;;;;1.80;1.30;;;20.10;63.30;;;;;;11058289;26;20001;-59
2024/04/11 00:45:17;;;;;;;2.42;1.38;;;20.10;63.30;;;;;;11057829;26;20008;-59
2024/04/11 00:50:23;;;;;;;2.28;1.30;;;20.00;63.20;;;;;;11057910;26;20485;-58
2024/04/11 00:55:26;;;;;;;2.35;1.40;;;20.00;63.30;;;;;;11057356;26;20001;-60
2024/04/11 01:00:29;;;;;;;2.35;1.38;;;20.00;63.40;;;;;;11057728;26;20008;-60
2024/04/11 01:05:36;;;;;;;1.23;1.10;;;20.00;63.50;;;;;;11056911;26;20470;-57
2024/04/11 01:10:40;;;;;;;1.88;1.27;;;19.90;63.50;;;;;;11061498;26;20102;-58
2024/04/11 01:15:43;;;;;;;2.28;1.27;;;19.90;63.70;;;;;;11064220;26;20001;-58
2024/04/11 01:20:49;;;;;;;1.67;1.40;;;19.90;64.60;;;;;;11063628;26;20016;-59
2024/04/11 01:25:55;;;;;;;1.92;1.15;;;19.90;64.70;;;;;;11064124;26;20474;-59
2024/04/11 01:30:58;;;;;;;2.53;1.38;;;19.90;65.10;;;;;;11063438;26;20001;-58
2024/04/11 01:36:01;;;;;;;1.55;1.27;;;19.80;65.10;;;;;;11039509;26;20006;-60
2024/04/11 01:41:08;;;;;;;2.05;1.40;;;19.80;66.30;;;;;;10992108;27;20001;-59
2024/04/11 01:46:18;;;;;;;3.28;1.15;;;19.80;65.80;;;;;;10991417;27;20353;-60
2024/04/11 01:51:21;;;;;;;2.22;1.50;;;19.80;66.10;;;;;;10992182;27;20005;-60
2024/04/11 01:56:29;;;;;;;2.03;1.17;;;19.70;66.20;;;;;;10991530;27;20014;-60
2024/04/11 02:01:34;;;;;;;1.42;1.30;;;19.70;66.70;;;;;;10991773;27;20029;-58
2024/04/11 02:06:38;;;;;;;2.17;1.50;;;19.70;67.00;;;;;;10991674;27;20001;-60
2024/04/11 02:11:46;;;;;;;1.85;1.20;;;19.80;70.40;;;;;;10991603;26;19998;-58
2024/04/11 02:16:50;;;;;;;2.47;1.55;;;19.70;71.50;;;;;;10991501;26;20010;-60
2024/04/11 02:21:53;;;;;;;1.48;1.20;;;19.70;72.30;;;;;;10990591;26;20002;-59
2024/04/11 02:26:59;;;;;;;2.65;1.20;;;19.60;72.90;;;;;;10991225;27;20010;-59
2024/04/11 02:32:02;;;;;;;1.35;1.02;;;19.60;74.00;;;;;;10990501;27;20001;-59
2024/04/11 02:37:06;;;;;;;1.45;1.10;;;19.60;72.70;;;;;;11029781;26;20001;-59
2024/04/11 02:42:12;;;;;;;2.17;1.58;;;19.60;72.20;;;;;;11061922;26;20040;-58
2024/04/11 02:47:15;;;;;;;2.75;1.10;;;19.50;72.20;;;;;;11061442;26;20013;-60
2024/04/11 02:52:19;;;;;;;2.42;1.20;;;19.50;71.90;;;;;;11061294;26;19997;-58
2024/04/11 02:57:25;;;;;;;3.08;1.40;;;19.40;72.80;;;;;;11061517;26;20016;-57
2024/04/11 03:02:30;;;;;;;2.20;1.38;;;19.40;73.40;;;;;;11061206;26;20031;-56
2024/04/11 03:07:34;;;;;;;2.70;1.42;;;19.60;71.30;;;;;;11060933;26;20015;-56
2024/04/11 03:12:40;;;;;;;2.65;1.42;;;19.70;71.10;;;;;;11060579;26;19997;-59
2024/04/11 03:17:43;;;;;;;2.83;1.33;;;19.90;71.00;;;;;;11060486;26;20470;-59
2024/04/11 03:22:47;;;;;;;1.67;1.20;;;20.00;70.80;;;;;;11060473;26;19997;-59
2024/04/11 03:27:53;;;;;;;2.75;1.23;;;20.10;70.70;;;;;;11060388;26;20011;-59
2024/04/11 03:32:56;;;;;;;1.90;1.20;;;20.10;70.70;;;;;;11059195;26;20446;-60
2024/04/11 03:37:59;;;;;;;1.80;1.13;;;20.30;70.70;;;;;;11007707;26;20012;-60
2024/04/11 03:43:05;;;;;;;1.60;1.15;;;20.60;73.20;;;;;;10988487;27;20013;-59
2024/04/11 03:48:09;;;;;;;2.33;1.20;;;20.60;61.00;;;;;;11026836;26;20005;-60
2024/04/11 03:53:12;;;;;;;2.30;1.30;;;20.70;60.50;;;;;;11060024;26;20008;-60
2024/04/11 03:58:18;;;;;;;3.17;1.30;;;20.80;60.30;;;;;;11059901;26;20009;-60
2024/04/11 04:03:23;;;;;;;1.98;1.10;;;20.80;59.90;;;;;;11059021;26;19996;-60
2024/04/11 04:08:26;;;;;;;2.60;1.13;;;20.90;59.80;;;;;;11059134;26;19997;-60
2024/04/11 04:13:32;;;;;;;2.20;1.10;;;20.90;59.60;;;;;;11059044;26;19997;-59
2024/04/11 04:18:36;;;;;;;1.30;1.10;;;20.90;59.40;;;;;;11058312;26;20000;-60
2024/04/11 04:23:39;;;;;;;1.30;0.90;;;21.00;59.30;;;;;;11058410;26;20071;-60
2024/04/11 04:28:45;;;;;;;1.48;0.88;;;21.10;58.90;;;;;;11058444;26;20749;-58
2024/04/11 04:33:49;;;;;;;3.15;1.00;;;21.20;58.80;;;;;;11057732;26;20033;-58
2024/04/11 04:38:53;;;;;;;2.13;1.10;;;21.30;58.60;;;;;;10993361;26;20455;-57
2024/04/11 04:44:00;;;;;;;2.75;1.23;;;21.30;58.70;;;;;;10990259;26;19997;-61
2024/04/11 04:49:09;;;;;;;1.48;0.88;;;21.30;58.70;;;;;;11055120;26;20417;-61
2024/04/11 04:54:13;;;;;;;2.25;1.15;;;21.30;58.70;;;;;;11065032;26;20005;-59
2024/04/11 04:59:19;;;;;;;1.85;0.98;;;21.40;59.00;;;;;;11064615;26;20364;-61
2024/04/11 05:04:23;;;;;;;3.47;1.17;;;21.40;58.70;;;;;;11064365;26;20351;-60
2024/04/11 05:09:26;;;;;;;1.35;0.85;;;21.20;58.90;;;;;;11064372;26;20001;-61
2024/04/11 05:14:32;;;;;;;2.55;1.00;;;21.10;59.00;;;;;;11064313;26;20008;-60
2024/04/11 05:19:35;;;;;;;2.50;1.10;;;21.10;59.00;;;;;;11063560;26;20001;-62
2024/04/11 05:24:38;;;;;;;3.95;0.88;;;21.10;58.40;;;;;;11061478;26;20322;-61
2024/04/11 05:29:45;;;;;;;10.63;1.20;;;21.10;58.40;;;;;;11060262;26;20013;-59
2024/04/11 05:34:49;;;;;;;14.75;2.22;;;21.20;58.50;;;;;;11046161;26;20362;-62
2024/04/11 05:39:57;;;;;;;9.75;1.80;;;21.10;58.60;;;;;;11001974;26;20012;-60
2024/04/11 05:45:03;;;;;;;11.40;2.28;;;21.10;57.40;;;;;;11063441;26;20471;-61
2024/04/11 05:50:07;;;;;;;19.38;2.63;;;21.10;57.90;;;;;;11033477;26;20002;-59
2024/04/11 05:55:12;;;;;;;13.45;2.38;;;21.30;58.80;;;;;;10990778;27;20028;-62
2024/04/11 06:00:22;;;;;;;9.90;1.83;;;21.40;59.20;;;;;;10991591;26;20038;-59
2024/04/11 06:05:25;;;;;;;20.83;2.20;;;21.40;57.50;;;;;;10992011;26;20521;-62
2024/04/11 06:10:29;;;;;;;7.85;1.90;;;21.10;56.00;;;;;;11059609;26;20015;-55
2024/04/11 06:15:35;;;;;;;7.35;2.00;;;20.90;55.20;;;;;;11062038;26;20015;-54
2024/04/11 06:20:38;;;;;;;8.25;1.77;;;20.90;55.00;;;;;;11062239;26;19997;-56
2024/04/11 06:25:42;;;;;;;7.57;1.63;;;20.80;54.30;;;;;;11061699;26;19997;-58
2024/04/11 06:30:48;;;;;;;4.80;1.45;;;20.70;54.00;;;;;;11061468;26;20000;-60
2024/04/11 06:35:51;;;;;;;7.40;1.77;;;20.70;53.30;;;;;;11061753;26;20008;-55
2024/04/11 06:40:55;;;;;;;26.40;2.17;;;20.70;53.00;;;;;;11037776;26;20009;-58
2024/04/11 06:46:01;;;;;;;10.98;2.08;;;20.90;53.30;;;;;;10990090;27;19998;-58
2024/04/11 06:51:06;;;;;;;6.47;1.40;;;20.90;52.10;;;;;;10990499;27;20497;-58
2024/04/11 06:56:11;;;;;;;5.82;1.23;;;20.70;53.00;;;;;;10989810;27;20141;-59
2024/04/11 07:01:18;;;;;;;8.30;1.55;;;20.80;55.10;;;;;;10989945;27;20008;-56
2024/04/11 07:06:24;;;;;;;8.32;1.30;;;20.90;55.20;;;;;;10988495;26;20009;-58
2024/04/11 07:11:32;;;;;;;5.22;1.35;;;21.10;55.70;;;;;;10989494;27;20015;-58
2024/04/11 07:16:40;;;;;;;5.25;1.58;;;21.10;56.00;;;;;;10989781;27;20033;-59
2024/04/11 07:21:43;;;;;;;6.15;1.20;;;21.10;56.40;;;;;;10989344;27;20002;-56
2024/04/11 07:26:48;;;;;;;2.63;1.10;;;21.10;56.70;;;;;;10989031;27;20022;-56
2024/04/11 07:31:55;;;;;;;4.65;1.10;;;21.10;56.70;;;;;;10988624;27;20009;-57
2024/04/11 07:36:59;;;;;;;3.90;1.13;;;21.10;57.00;;;;;;10989699;27;20075;-59
2024/04/11 07:42:18;;;;;;;5.18;1.23;;;21.20;57.00;;;;;;11025329;26;20016;-57
2024/04/11 07:47:29;;;;;;;7.68;1.17;;;21.10;57.00;;;;;;11038325;26;20071;-54
2024/04/11 07:52:33;;;;;;;6.63;1.10;;;21.10;57.20;;;;;;11055999;26;20033;-58
2024/04/11 07:57:38;;;;;;;3.80;1.10;;;21.20;57.40;;;;;;11054530;26;20011;-58
2024/04/11 08:02:48;;;;;;;4.88;1.00;;;21.20;57.30;;;;;;11059616;26;20044;-55
2024/04/11 08:07:51;;;;;;;1.65;1.08;;;21.30;57.40;;;;;;11053776;26;20071;-56
2024/04/11 08:12:57;;;;;;;3.25;1.30;;;21.30;57.60;;;;;;11059378;26;20015;-52
2024/04/11 08:18:03;;;;;;;2.80;1.00;;;21.40;57.40;;;;;;11061940;26;20347;-56
2024/04/11 08:23:08;;;;;;;3.95;1.05;;;21.50;57.40;;;;;;11065230;26;20016;-55
2024/04/11 08:28:13;;;;;;;10.52;1.10;;;21.50;57.80;;;;;;11065683;26;20012;-56
2024/04/11 08:33:20;;;;;;;6.60;1.10;;;21.60;57.80;;;;;;11065185;26;20012;-56
2024/04/11 08:38:24;;;;;;;2.67;1.00;;;21.90;57.90;;;;;;11065253;26;20001;-53
2024/04/11 08:43:30;;;;;;;3.55;0.90;;;22.10;59.40;;;;;;11064701;26;20001;-58
2024/04/11 08:48:37;;;;;;;8.20;1.00;;;22.00;59.30;;;;;;11064792;26;20346;-51
2024/04/11 08:53:41;;;;;;;5.28;0.90;;;22.20;61.50;;;;;;11063776;26;20001;-55
2024/04/11 08:58:45;;;;;;;3.78;1.10;;;22.10;61.50;;;;;;11057843;26;20875;-58
2024/04/11 09:03:52;;;;;;;6.50;1.27;;;22.20;58.00;;;;;;11062837;26;19996;-58
2024/04/11 09:08:56;;;;;;;2.47;0.95;;;22.10;57.80;;;;;;11065288;26;20331;-55
2024/04/11 09:14:00;;;;;;;8.35;1.45;;;22.10;57.50;;;;;;11063767;26;19997;-57
2024/04/11 09:19:08;;;;;;;6.55;1.20;;;22.20;56.50;;;;;;11064546;26;20454;-57
2024/04/11 09:24:13;;;;;;;4.20;1.38;;;22.20;56.00;;;;;;11064652;26;20400;-60
2024/04/11 09:29:17;;;;;;;4.53;1.40;;;22.10;55.90;;;;;;11063187;26;20042;-53
2024/04/11 09:34:26;;;;;;;6.35;1.38;;;22.10;55.80;;;;;;11064015;26;20479;-58
2024/04/11 09:44:47;;;;;;;4.07;1.35;;;22.30;55.80;;;;;;11063985;26;20009;-55
2024/04/11 09:49:59;;;;;;;2.13;1.00;;;22.40;55.20;;;;;;11026504;26;20013;-57
2024/04/11 09:55:04;;;;;;;7.72;1.80;;;22.50;55.10;;;;;;10992919;26;20080;-56
2024/04/11 10:00:18;;;;;;;9.85;1.20;;;22.60;54.80;;;;;;11015392;26;20067;-59
2024/04/11 10:05:25;;;;;;;9.38;1.40;;;22.60;54.60;;;;;;11061907;26;20028;-59
2024/04/11 10:10:29;;;;;;;8.38;1.50;;;22.70;55.20;;;;;;11063703;26;20000;-59
2024/04/11 10:15:34;;;;;;;5.10;1.38;;;22.70;54.80;;;;;;11063373;26;19997;-60
2024/04/11 10:20:59;;;;;;;7.75;1.38;;;22.70;54.90;;;;;;11063131;26;20000;-59
2024/04/11 10:26:06;;;;;;;7.38;1.40;;;22.90;56.10;;;;;;11062736;26;20016;-57
2024/04/11 10:31:11;;;;;;;6.75;1.20;;;22.90;55.30;;;;;;11062696;26;20012;-58
2024/04/11 10:36:17;;;;;;;6.90;0.98;;;22.90;54.40;;;;;;11062863;26;19997;-58
2024/04/11 10:41:23;;;;;;;2.63;1.13;;;22.90;54.30;;;;;;11061984;26;20004;-58
2024/04/11 10:46:27;;;;;;;5.85;1.30;;;23.00;53.90;;;;;;11062527;26;19997;-58
2024/04/11 10:51:34;;;;;;;3.33;1.05;;;22.90;54.10;;;;;;11000775;26;20455;-60
2024/04/11 10:56:40;;;;;;;5.55;1.30;;;22.80;54.40;;;;;;10990983;26;20002;-59
2024/04/11 11:01:47;;;;;;;3.60;1.10;;;22.80;54.30;;;;;;11037199;26;19996;-55
2024/04/11 11:06:54;;;;;;;2.65;1.10;;;22.70;54.20;;;;;;11060987;26;20024;-56
2024/04/11 11:12:00;;;;;;;19.77;3.22;;;22.70;54.30;;;;;;11061277;26;20557;-57
2024/04/11 11:17:07;;;;;;;24.30;5.70;;;22.80;54.90;;;;;;11061066;26;20001;-55
2024/04/11 11:22:14;;;;;;;27.25;7.30;;;22.90;57.80;;;;;;11061228;26;20449;-57
2024/04/11 11:27:20;;;;;;;27.45;6.75;;;22.90;58.00;;;;;;11060843;26;19997;-56
2024/04/11 11:32:25;;;;;;;14.70;4.50;;;23.00;59.00;;;;;;11060834;26;20016;-54
2024/04/11 11:37:32;;;;;;;14.23;4.28;;;23.10;59.30;;;;;;11060582;26;20005;-55
2024/04/11 11:42:35;;;;;;;15.63;3.90;;;23.10;59.60;;;;;;11060977;26;20023;-53
2024/04/11 11:47:45;;;;;;;11.77;3.58;;;23.10;59.10;;;;;;11054803;26;20010;-56
2024/04/11 11:52:51;;;;;;;10.63;3.20;;;23.10;57.20;;;;;;10987969;26;20041;-57
2024/04/11 11:58:03;;;;;;;16.50;2.75;;;22.90;56.00;;;;;;10988947;26;20063;-54
2024/04/11 12:03:20;;;;;;;10.73;2.67;;;23.00;56.50;;;;;;10987845;26;20074;-53
2024/04/11 12:08:27;;;;;;;9.48;2.53;;;23.10;56.40;;;;;;10988949;26;20057;-56
2024/04/11 12:13:34;;;;;;;4.90;2.55;;;23.00;54.90;;;;;;10988414;26;20459;-51
2024/04/11 12:18:40;;;;;;;7.88;2.45;;;22.90;53.70;;;;;;10991038;26;20448;-54
2024/04/11 12:23:47;;;;;;;9.52;3.10;;;22.80;54.60;;;;;;10987851;26;20013;-53
2024/04/11 12:28:50;;;;;;;5.53;2.88;;;22.80;53.60;;;;;;10988133;26;20025;-53
2024/04/11 12:33:56;;;;;;;7.65;2.55;;;22.30;55.40;;;;;;10987787;26;20001;-54
2024/04/11 12:39:12;;;;;;;8.68;2.42;;;22.50;53.70;;;;;;10989075;26;20006;-56
2024/04/11 12:44:24;;;;;;;9.38;2.45;;;22.30;52.40;;;;;;11020186;26;20075;-54
2024/04/11 12:49:29;;;;;;;18.55;2.38;;;22.40;53.70;;;;;;11027610;26;20359;-51
2024/04/11 12:54:35;;;;;;;6.63;1.75;;;22.70;53.40;;;;;;10989219;26;20010;-57
2024/04/11 12:59:45;;;;;;;6.85;2.28;;;22.70;53.90;;;;;;10988989;26;20001;-57
2024/04/11 13:04:54;;;;;;;5.53;2.95;;;22.70;54.10;;;;;;10990600;26;19998;-56
2024/04/11 13:10:07;;;;;;;8.15;2.90;;;22.40;56.20;;;;;;10996081;26;20021;-56
2024/04/11 13:15:12;;;;;;;6.18;2.05;;;22.30;56.20;;;;;;10993926;26;20079;-55
2024/04/11 13:20:15;;;;;;;13.18;2.80;;;22.60;56.20;;;;;;11047520;26;20016;-52
2024/04/11 13:25:21;;;;;;;11.60;2.60;;;22.60;55.10;;;;;;11064537;26;20001;-52
2024/04/11 13:30:25;;;;;;;6.97;4.28;;;22.70;56.20;;;;;;11059327;26;20012;-53
2024/04/11 13:46:15;;;;;;;11.18;7.45;;;22.70;58.20;;;;;;11026673;26;20322;-53
2024/04/11 13:51:18;;;;;;;8.27;5.30;;;23.00;63.50;;;;;;11063442;26;20447;-53
2024/04/11 13:56:29;;;;;;;8.43;4.63;;;23.00;67.30;;;;;;11060818;26;20020;-52
2024/04/11 14:01:41;;;;;;;9.55;4.90;;;23.20;56.50;;;;;;11058110;26;20001;-54
2024/04/11 14:12:16;;;;;;;8.93;3.10;;;22.80;57.40;;;;;;11480111;25;20716;-62
2024/04/11 14:17:22;;;;;;;13.13;3.55;;;23.00;57.90;;;;;;11445522;25;20021;-59
2024/04/11 14:22:41;;;;;;;19.25;3.35;;;22.90;54.60;;;;;;11430614;25;20043;-55
2024/04/11 14:27:47;;;;;;;11.55;2.70;;;23.10;55.10;;;;;;11419661;25;20078;-55
2024/04/11 14:33:09;;;;;;;11.55;2.45;;;23.30;55.60;;;;;;11441550;25;20505;-58
2024/04/11 14:38:18;;;;;;;10.95;2.40;;;23.30;55.90;;;;;;11449758;25;20005;-52
2024/04/11 14:43:30;;;;;;;16.50;2.72;;;23.30;56.70;;;;;;11484787;25;19997;-55
2024/04/11 14:48:36;;;;;;;6.68;2.28;;;23.20;56.30;;;;;;11476738;25;20008;-54
2024/04/11 14:53:46;;;;;;;10.80;2.40;;;23.50;56.40;;;;;;11402179;21;20018;-80
2024/04/11 14:58:53;;;;;;;12.00;2.67;;;23.40;55.30;;;;;;11290365;26;20007;-81
2024/04/11 15:03:59;;;;;;;12.65;2.50;;;23.40;55.90;;;;;;11300001;26;20342;-81
2024/04/11 15:09:26;;;;;;;9.45;2.20;;;23.30;56.00;;;;;;11324704;26;19999;-81
2024/04/11 15:14:32;;;;;;;7.47;2.20;;;23.20;56.00;;;;;;11327591;26;20072;-81
2024/04/11 15:19:37;;;;;;;4.43;2.30;;;23.20;56.10;;;;;;11317083;26;20003;-81
2024/04/11 15:24:46;;;;;;;6.57;2.22;;;23.10;56.00;;;;;;11290882;26;20372;-80
2024/04/11 15:30:03;;;;;;;4.90;2.20;;;23.20;56.20;;;;;;11289212;26;20000;-80
2024/04/11 15:35:10;;;;;;;4.70;2.40;;;23.20;56.30;;;;;;11287573;26;20023;-80
2024/04/11 15:40:22;;;;;;;4.82;2.28;;;23.10;56.50;;;;;;11288320;26;20013;-80
2024/04/11 15:45:30;;;;;;;4.15;2.10;;;23.10;56.60;;;;;;11288929;26;20006;-80
2024/04/11 15:50:36;;;;;;;4.07;2.35;;;23.00;56.80;;;;;;11287943;26;20002;-80
2024/04/11 15:55:51;;;;;;;5.50;2.20;;;23.00;57.00;;;;;;11288565;26;20014;-80
2024/04/11 16:00:57;;;;;;;4.88;2.38;;;22.90;57.10;;;;;;11299570;26;20462;-80
2024/04/11 16:06:01;;;;;;;6.28;3.08;;;22.80;57.20;;;;;;11361857;26;20010;-81
2024/04/11 16:11:05;;;;;;;5.53;2.30;;;22.80;57.30;;;;;;11361721;26;20462;-80
2024/04/11 16:16:14;;;;;;;4.53;2.40;;;23.00;57.30;;;;;;11361550;26;20514;-80
2024/04/11 16:21:17;;;;;;;3.53;2.17;;;22.90;57.50;;;;;;11362022;26;20006;-80
2024/04/11 16:26:26;;;;;;;4.80;2.10;;;22.80;57.80;;;;;;11362157;26;20454;-80
2024/04/11 16:31:38;;;;;;;5.55;2.20;;;22.80;57.80;;;;;;11332419;26;20338;-79
2024/04/11 16:36:48;;;;;;;10.80;2.35;;;22.80;58.10;;;;;;11286215;26;19999;-79
2024/04/11 16:41:51;;;;;;;3.55;2.25;;;22.80;58.50;;;;;;11285394;26;20014;-79
2024/04/11 16:46:57;;;;;;;6.38;2.28;;;22.70;58.60;;;;;;11285100;26;20011;-79
2024/04/11 16:52:07;;;;;;;8.63;2.38;;;22.70;58.80;;;;;;11284646;26;19995;-80
2024/04/11 16:57:12;;;;;;;5.13;2.40;;;22.70;58.90;;;;;;11286523;26;20453;-79
2024/04/11 17:02:21;;;;;;;6.90;2.55;;;22.70;59.40;;;;;;11286452;26;19999;-79
2024/04/11 17:07:27;;;;;;;5.65;2.10;;;22.70;59.70;;;;;;11288198;26;19998;-78
2024/04/11 17:12:31;;;;;;;6.32;2.00;;;22.70;59.40;;;;;;11286803;26;20403;-78
2024/04/11 17:23:19;;;;;;;3.25;2.30;;;22.50;59.80;;;;;;11391135;25;20318;-49
2024/04/11 17:28:34;;;;;;;5.13;2.05;;;22.40;60.10;;;;;;11319521;26;20013;-53
2024/04/11 17:39:43;;;;;;;3.60;2.10;;;22.40;60.00;;;;;;11318917;26;20066;-50
2024/04/11 17:44:40;;;;;;;3.05;2.30;;;22.30;60.00;;;;;;11318734;26;20007;-51
2024/04/11 17:49:55;;;;;;;3.97;2.30;;;22.30;60.00;;;;;;11318827;26;20454;-48
2024/04/11 17:55:05;;;;;;;4.97;1.90;;;22.20;60.20;;;;;;11318575;26;20075;-51
2024/04/11 18:00:13;;;;;;;2.70;1.90;;;22.30;60.50;;;;;;11318927;26;20027;-49
2024/04/11 18:05:16;;;;;;;2.63;2.00;;;22.40;60.50;;;;;;11318881;26;20009;-49
2024/04/11 18:10:24;;;;;;;7.18;2.30;;;22.40;60.50;;;;;;11319118;26;20010;-52
2024/04/11 18:15:30;;;;;;;4.65;1.75;;;22.50;60.50;;;;;;11318625;26;20067;-51
2024/04/11 18:20:38;;;;;;;2.88;2.00;;;22.60;60.90;;;;;;11315923;26;20015;-50
2024/04/11 18:25:44;;;;;;;2.60;1.85;;;22.60;60.90;;;;;;11318146;26;19999;-51
2024/04/11 18:30:53;;;;;;;7.82;2.10;;;22.50;60.90;;;;;;11304018;26;20017;-55
2024/04/11 18:35:57;;;;;;;5.32;1.90;;;22.60;60.80;;;;;;11213011;26;19999;-54
2024/04/11 18:41:14;;;;;;;6.70;2.17;;;22.60;61.00;;;;;;11211814;26;19995;-56
2024/04/11 18:46:25;;;;;;;3.88;1.70;;;22.70;60.90;;;;;;11211575;26;20004;-55
2024/04/11 18:51:32;;;;;;;3.13;1.70;;;22.70;60.80;;;;;;11211646;26;20077;-55
2024/04/11 18:56:41;;;;;;;3.40;1.83;;;22.70;60.90;;;;;;11211474;26;19999;-53
2024/04/11 19:01:46;;;;;;;3.22;1.85;;;22.70;60.80;;;;;;11216935;26;20076;-53
2024/04/11 19:06:49;;;;;;;4.68;1.77;;;22.70;60.70;;;;;;11211089;26;20014;-51
2024/04/11 19:11:55;;;;;;;2.70;1.80;;;22.70;60.70;;;;;;11211026;26;20014;-51
2024/04/11 19:17:03;;;;;;;2.65;1.52;;;22.70;60.80;;;;;;11209981;26;20000;-54
2024/04/11 19:22:11;;;;;;;10.02;2.50;;;22.70;62.30;;;;;;11210934;26;20510;-56
2024/04/11 19:27:18;;;;;;;3.75;1.75;;;22.60;61.90;;;;;;11210572;26;20027;-55
2024/04/11 19:32:26;;;;;;;3.08;1.95;;;22.60;60.80;;;;;;11250162;26;20067;-53
2024/04/11 19:37:33;;;;;;;3.15;1.75;;;22.50;60.80;;;;;;11284646;26;19999;-56
2024/04/11 19:42:39;;;;;;;4.25;1.60;;;22.50;61.00;;;;;;11282815;26;20007;-54
2024/04/11 19:47:43;;;;;;;2.42;1.50;;;22.40;61.00;;;;;;11283457;26;20003;-57
2024/04/11 19:52:49;;;;;;;2.33;1.65;;;22.30;61.10;;;;;;11283331;26;20468;-52
2024/04/11 19:58:00;;;;;;;3.63;1.60;;;22.30;61.30;;;;;;11282472;26;20007;-52
2024/04/11 20:03:15;;;;;;;2.20;1.80;;;22.30;60.90;;;;;;11254615;26;20071;-56
2024/04/11 20:08:19;;;;;;;3.42;1.60;;;22.30;61.00;;;;;;11245440;26;20010;-57
2024/04/11 20:18:46;;;;;;;3.70;1.70;;;22.20;61.00;;;;;;11219936;26;20008;-53
2024/04/11 20:23:50;;;;;;;3.53;1.65;;;22.20;61.20;;;;;;11208923;26;20411;-52
2024/04/11 20:28:55;;;;;;;2.63;1.98;;;22.10;61.50;;;;;;11208388;26;20015;-56
2024/04/11 20:34:05;;;;;;;2.00;1.80;;;22.10;61.50;;;;;;11235745;26;19999;-57
2024/04/11 20:39:24;;;;;;;1.92;1.77;;;22.10;61.40;;;;;;11208345;26;19996;-53
2024/04/11 20:44:40;;;;;;;2.33;1.80;;;22.10;61.50;;;;;;11208206;26;20007;-55
2024/04/11 21:33:30;;;;;;;2.00;1.75;;;22.00;61.40;;;;;;11207908;26;20008;-51
2024/04/11 21:38:12;;;;;;;2.70;2.50;;;21.80;62.50;;;;;;11062915;26;20001;-50
2024/04/11 21:43:20;;;;;;;2.53;2.30;;;21.70;62.80;;;;;;11059665;26;20439;-52
2024/04/11 21:48:29;;;;;;;3.47;2.53;;;21.70;63.10;;;;;;11060033;26;20650;-55
2024/04/11 21:53:36;;;;;;;2.97;2.30;;;21.70;63.40;;;;;;11059796;26;20350;-54
2024/04/11 21:58:39;;;;;;;3.63;2.20;;;21.60;63.40;;;;;;11059792;26;20435;-50
2024/04/11 22:03:51;;;;;;;7.07;2.58;;;21.50;63.30;;;;;;11059341;26;20358;-53
2024/04/11 22:08:55;;;;;;;3.55;2.20;;;21.50;63.50;;;;;;11112593;26;20007;-54
2024/04/11 22:13:59;;;;;;;2.47;2.20;;;21.40;63.40;;;;;;11138621;26;20011;-52
2024/04/11 22:19:18;;;;;;;2.30;2.10;;;21.40;63.50;;;;;;11138661;26;20449;-54
2024/04/11 22:24:22;;;;;;;2.20;2.00;;;21.40;63.60;;;;;;11138466;26;20476;-50
2024/04/11 22:29:27;;;;;;;2.50;2.30;;;21.40;63.60;;;;;;11138362;26;20001;-50
2024/04/11 22:34:33;;;;;;;2.20;2.00;;;21.30;63.50;;;;;;11137809;26;20008;-55
2024/04/11 22:39:36;;;;;;;2.80;2.30;;;21.30;63.50;;;;;;11138071;26;20000;-52
2024/04/11 22:44:47;;;;;;;4.15;2.10;;;21.30;63.50;;;;;;11113602;26;20427;-53
2024/04/11 22:50:03;;;;;;;2.53;2.03;;;21.20;63.50;;;;;;11065183;26;20070;-53
2024/04/11 22:55:15;;;;;;;2.92;2.15;;;21.20;63.60;;;;;;11065114;26;20411;-51
2024/04/11 23:05:37;;;;;;;2.63;2.13;;;21.10;63.60;;;;;;11064120;26;20020;-52
2024/04/11 23:10:43;;;;;;;2.45;2.00;;;21.10;63.60;;;;;;11065209;26;20120;-50
2024/04/11 23:15:52;;;;;;;2.28;2.03;;;21.10;63.80;;;;;;11064458;26;19997;-54
2024/04/11 23:21:06;;;;;;;2.50;1.80;;;21.10;63.80;;;;;;11064218;26;20013;-54
2024/04/11 23:26:13;;;;;;;2.15;1.90;;;21.00;63.70;;;;;;11063903;26;20015;-50
2024/04/11 23:31:16;;;;;;;2.28;1.90;;;21.00;63.80;;;;;;11063629;26;20004;-55
2024/04/11 23:36:24;;;;;;;2.20;2.00;;;21.00;63.80;;;;;;11063819;26;20016;-52
2024/04/11 23:41:32;;;;;;;2.15;1.95;;;21.00;63.80;;;;;;11068349;26;20049;-49
2024/04/11 23:46:40;;;;;;;2.28;2.08;;;21.00;63.90;;;;;;11063976;26;20016;-53
2024/04/11 23:51:50;;;;;;;2.92;2.00;;;20.90;63.80;;;;;;11063381;26;20001;-50
2024/04/11 23:57:01;;;;;;;2.30;2.00;;;20.90;63.80;;;;;;11063270;26;20005;-51
